sensor_id;sensor_type;location;lat;lon;timestamp;P1;durP1;ratioP1;P2;durP2;ratioP2
8540;SDS011;4308;51.294;6.590;2023-10-08T00:01:02;6.77;;;4.00;;
8540;SDS011;4308;51.294;6.590;2023-10-08T00:03:30;7.30;;;4.00;;
8540;SDS011;4308;51.294;6.590;2023-10-08T00:05:58;6.90;;;4.33;;
8540;SDS011;4308;51.294;6.590;2023-10-08T00:08:26;8.17;;;4.20;;
8540;SDS011;4308;51.294;6.590;2023-10-08T00:10:53;8.50;;;4.30;;
8540;SDS011;4308;51.294;6.590;2023-10-08T00:13:23;5.03;;;3.67;;
8540;SDS011;4308;51.294;6.590;2023-10-08T00:15:51;6.30;;;4.43;;
8540;SDS011;4308;51.294;6.590;2023-10-08T00:18:22;4.93;;;3.60;;
8540;SDS011;4308;51.294;6.590;2023-10-08T00:20:50;9.50;;;4.33;;
8540;SDS011;4308;51.294;6.590;2023-10-08T00:23:18;7.77;;;4.10;;
8540;SDS011;4308;51.294;6.590;2023-10-08T00:25:45;8.77;;;4.43;;
8540;SDS011;4308;51.294;6.590;2023-10-08T00:28:13;6.57;;;4.27;;
8540;SDS011;4308;51.294;6.590;2023-10-08T00:30:41;7.77;;;4.10;;
8540;SDS011;4308;51.294;6.590;2023-10-08T00:33:08;6.00;;;3.90;;
8540;SDS011;4308;51.294;6.590;2023-10-08T00:35:37;6.50;;;4.40;;
8540;SDS011;4308;51.294;6.590;2023-10-08T00:38:05;8.60;;;4.30;;
8540;SDS011;4308;51.294;6.590;2023-10-08T00:40:39;7.40;;;3.90;;
8540;SDS011;4308;51.294;6.590;2023-10-08T00:43:07;6.27;;;4.13;;
8540;SDS011;4308;51.294;6.590;2023-10-08T00:45:34;5.40;;;3.77;;
8540;SDS011;4308;51.294;6.590;2023-10-08T00:48:02;6.67;;;4.30;;
8540;SDS011;4308;51.294;6.590;2023-10-08T00:50:30;8.27;;;4.37;;
8540;SDS011;4308;51.294;6.590;2023-10-08T00:52:57;5.70;;;4.30;;
8540;SDS011;4308;51.294;6.590;2023-10-08T00:55:25;5.07;;;3.80;;
8540;SDS011;4308;51.294;6.590;2023-10-08T00:57:53;9.20;;;4.30;;
8540;SDS011;4308;51.294;6.590;2023-10-08T01:00:22;6.40;;;3.93;;
8540;SDS011;4308;51.294;6.590;2023-10-08T01:02:50;7.60;;;4.27;;
8540;SDS011;4308;51.294;6.590;2023-10-08T01:05:18;7.30;;;4.53;;
8540;SDS011;4308;51.294;6.590;2023-10-08T01:07:46;8.13;;;4.87;;
8540;SDS011;4308;51.294;6.590;2023-10-08T01:10:13;8.27;;;4.60;;
8540;SDS011;4308;51.294;6.590;2023-10-08T01:12:41;5.37;;;3.77;;
8540;SDS011;4308;51.294;6.590;2023-10-08T01:15:09;8.57;;;4.20;;
8540;SDS011;4308;51.294;6.590;2023-10-08T01:17:36;10.20;;;4.63;;
8540;SDS011;4308;51.294;6.590;2023-10-08T01:20:04;6.43;;;4.07;;
8540;SDS011;4308;51.294;6.590;2023-10-08T01:22:32;11.17;;;4.70;;
8540;SDS011;4308;51.294;6.590;2023-10-08T01:25:00;8.53;;;4.50;;
8540;SDS011;4308;51.294;6.590;2023-10-08T01:27:29;7.77;;;4.93;;
8540;SDS011;4308;51.294;6.590;2023-10-08T01:29:57;6.90;;;4.13;;
8540;SDS011;4308;51.294;6.590;2023-10-08T01:32:25;8.93;;;5.00;;
8540;SDS011;4308;51.294;6.590;2023-10-08T01:34:53;6.70;;;4.43;;
8540;SDS011;4308;51.294;6.590;2023-10-08T01:37:20;9.53;;;4.60;;
8540;SDS011;4308;51.294;6.590;2023-10-08T01:39:48;6.63;;;4.67;;
8540;SDS011;4308;51.294;6.590;2023-10-08T01:42:16;5.87;;;3.90;;
8540;SDS011;4308;51.294;6.590;2023-10-08T01:44:44;7.23;;;4.57;;
8540;SDS011;4308;51.294;6.590;2023-10-08T01:47:12;8.47;;;5.07;;
8540;SDS011;4308;51.294;6.590;2023-10-08T01:49:40;6.13;;;3.90;;
8540;SDS011;4308;51.294;6.590;2023-10-08T01:52:08;8.37;;;4.90;;
8540;SDS011;4308;51.294;6.590;2023-10-08T01:54:35;7.20;;;4.47;;
8540;SDS011;4308;51.294;6.590;2023-10-08T01:57:03;9.23;;;4.87;;
8540;SDS011;4308;51.294;6.590;2023-10-08T01:59:31;9.70;;;4.30;;
8540;SDS011;4308;51.294;6.590;2023-10-08T02:01:58;7.47;;;4.30;;
8540;SDS011;4308;51.294;6.590;2023-10-08T02:04:26;7.13;;;4.63;;
8540;SDS011;4308;51.294;6.590;2023-10-08T02:06:54;6.80;;;4.37;;
8540;SDS011;4308;51.294;6.590;2023-10-08T02:09:22;8.37;;;4.80;;
8540;SDS011;4308;51.294;6.590;2023-10-08T02:11:49;7.47;;;4.53;;
8540;SDS011;4308;51.294;6.590;2023-10-08T02:14:17;9.57;;;4.67;;
8540;SDS011;4308;51.294;6.590;2023-10-08T02:16:48;6.93;;;4.67;;
8540;SDS011;4308;51.294;6.590;2023-10-08T02:19:16;7.53;;;5.03;;
8540;SDS011;4308;51.294;6.590;2023-10-08T02:21:44;7.77;;;4.43;;
8540;SDS011;4308;51.294;6.590;2023-10-08T02:24:12;7.47;;;4.47;;
8540;SDS011;4308;51.294;6.590;2023-10-08T02:26:39;6.30;;;4.20;;
8540;SDS011;4308;51.294;6.590;2023-10-08T02:29:08;7.93;;;4.57;;
8540;SDS011;4308;51.294;6.590;2023-10-08T02:31:37;7.00;;;4.60;;
8540;SDS011;4308;51.294;6.590;2023-10-08T02:34:05;5.67;;;4.67;;
8540;SDS011;4308;51.294;6.590;2023-10-08T02:36:34;7.10;;;4.90;;
8540;SDS011;4308;51.294;6.590;2023-10-08T02:39:04;10.40;;;4.93;;
8540;SDS011;4308;51.294;6.590;2023-10-08T02:41:32;6.63;;;4.40;;
8540;SDS011;4308;51.294;6.590;2023-10-08T02:43:59;7.10;;;4.47;;
8540;SDS011;4308;51.294;6.590;2023-10-08T02:46:27;8.70;;;4.83;;
8540;SDS011;4308;51.294;6.590;2023-10-08T02:48:55;7.47;;;4.53;;
8540;SDS011;4308;51.294;6.590;2023-10-08T02:51:23;8.03;;;5.07;;
8540;SDS011;4308;51.294;6.590;2023-10-08T02:53:50;8.57;;;5.17;;
8540;SDS011;4308;51.294;6.590;2023-10-08T02:56:18;7.43;;;4.93;;
8540;SDS011;4308;51.294;6.590;2023-10-08T02:58:46;8.23;;;4.63;;
8540;SDS011;4308;51.294;6.590;2023-10-08T03:01:13;8.80;;;4.83;;
8540;SDS011;4308;51.294;6.590;2023-10-08T03:03:41;6.53;;;4.23;;
8540;SDS011;4308;51.294;6.590;2023-10-08T03:06:09;5.97;;;4.40;;
8540;SDS011;4308;51.294;6.590;2023-10-08T03:08:37;7.40;;;4.23;;
8540;SDS011;4308;51.294;6.590;2023-10-08T03:11:05;7.70;;;4.87;;
8540;SDS011;4308;51.294;6.590;2023-10-08T03:13:33;11.10;;;5.03;;
8540;SDS011;4308;51.294;6.590;2023-10-08T03:16:00;6.17;;;4.03;;
8540;SDS011;4308;51.294;6.590;2023-10-08T03:18:28;6.17;;;4.13;;
8540;SDS011;4308;51.294;6.590;2023-10-08T03:20:56;6.27;;;4.20;;
8540;SDS011;4308;51.294;6.590;2023-10-08T03:23:24;7.00;;;4.60;;
8540;SDS011;4308;51.294;6.590;2023-10-08T03:25:55;12.33;;;4.60;;
8540;SDS011;4308;51.294;6.590;2023-10-08T03:28:23;9.70;;;4.40;;
8540;SDS011;4308;51.294;6.590;2023-10-08T03:30:52;7.53;;;4.63;;
8540;SDS011;4308;51.294;6.590;2023-10-08T03:33:25;6.87;;;4.47;;
8540;SDS011;4308;51.294;6.590;2023-10-08T03:35:55;8.50;;;4.87;;
8540;SDS011;4308;51.294;6.590;2023-10-08T03:38:23;6.13;;;4.03;;
8540;SDS011;4308;51.294;6.590;2023-10-08T03:40:50;8.10;;;4.30;;
8540;SDS011;4308;51.294;6.590;2023-10-08T03:43:18;8.27;;;5.00;;
8540;SDS011;4308;51.294;6.590;2023-10-08T03:45:45;9.37;;;5.03;;
8540;SDS011;4308;51.294;6.590;2023-10-08T03:48:13;9.17;;;4.83;;
8540;SDS011;4308;51.294;6.590;2023-10-08T03:50:41;8.60;;;4.93;;
8540;SDS011;4308;51.294;6.590;2023-10-08T03:53:09;7.53;;;5.00;;
8540;SDS011;4308;51.294;6.590;2023-10-08T03:55:40;6.40;;;4.07;;
8540;SDS011;4308;51.294;6.590;2023-10-08T03:58:08;9.57;;;4.60;;
8540;SDS011;4308;51.294;6.590;2023-10-08T04:00:35;7.20;;;4.40;;
8540;SDS011;4308;51.294;6.590;2023-10-08T04:03:03;5.67;;;4.07;;
8540;SDS011;4308;51.294;6.590;2023-10-08T04:05:31;8.07;;;4.70;;
8540;SDS011;4308;51.294;6.590;2023-10-08T04:07:58;8.27;;;4.73;;
8540;SDS011;4308;51.294;6.590;2023-10-08T04:10:27;9.83;;;5.00;;
8540;SDS011;4308;51.294;6.590;2023-10-08T04:12:55;7.60;;;4.23;;
8540;SDS011;4308;51.294;6.590;2023-10-08T04:15:22;5.93;;;4.23;;
8540;SDS011;4308;51.294;6.590;2023-10-08T04:17:50;7.13;;;4.23;;
8540;SDS011;4308;51.294;6.590;2023-10-08T04:20:18;6.90;;;4.10;;
8540;SDS011;4308;51.294;6.590;2023-10-08T04:22:46;8.27;;;4.83;;
8540;SDS011;4308;51.294;6.590;2023-10-08T04:25:13;6.13;;;4.33;;
8540;SDS011;4308;51.294;6.590;2023-10-08T04:27:41;7.83;;;4.33;;
8540;SDS011;4308;51.294;6.590;2023-10-08T04:30:09;8.20;;;4.97;;
8540;SDS011;4308;51.294;6.590;2023-10-08T04:32:36;7.90;;;4.97;;
8540;SDS011;4308;51.294;6.590;2023-10-08T04:35:04;9.93;;;5.30;;
8540;SDS011;4308;51.294;6.590;2023-10-08T04:37:32;8.33;;;4.70;;
8540;SDS011;4308;51.294;6.590;2023-10-08T04:40:00;7.00;;;4.10;;
8540;SDS011;4308;51.294;6.590;2023-10-08T04:42:27;11.43;;;4.40;;
8540;SDS011;4308;51.294;6.590;2023-10-08T04:44:55;7.70;;;5.13;;
8540;SDS011;4308;51.294;6.590;2023-10-08T04:47:22;8.27;;;4.93;;
8540;SDS011;4308;51.294;6.590;2023-10-08T04:49:50;8.40;;;4.60;;
8540;SDS011;4308;51.294;6.590;2023-10-08T04:52:18;6.43;;;4.63;;
8540;SDS011;4308;51.294;6.590;2023-10-08T04:54:45;8.17;;;4.03;;
8540;SDS011;4308;51.294;6.590;2023-10-08T04:57:13;8.10;;;4.50;;
8540;SDS011;4308;51.294;6.590;2023-10-08T04:59:41;8.77;;;4.50;;
8540;SDS011;4308;51.294;6.590;2023-10-08T05:02:09;8.43;;;4.90;;
8540;SDS011;4308;51.294;6.590;2023-10-08T05:04:36;7.97;;;5.10;;
8540;SDS011;4308;51.294;6.590;2023-10-08T05:07:04;11.77;;;5.33;;
8540;SDS011;4308;51.294;6.590;2023-10-08T05:09:32;7.40;;;4.83;;
8540;SDS011;4308;51.294;6.590;2023-10-08T05:12:00;7.27;;;4.77;;
8540;SDS011;4308;51.294;6.590;2023-10-08T05:14:27;8.43;;;4.77;;
8540;SDS011;4308;51.294;6.590;2023-10-08T05:16:55;7.87;;;4.60;;
8540;SDS011;4308;51.294;6.590;2023-10-08T05:19:23;8.90;;;4.90;;
8540;SDS011;4308;51.294;6.590;2023-10-08T05:21:51;10.97;;;5.03;;
8540;SDS011;4308;51.294;6.590;2023-10-08T05:24:18;9.20;;;4.80;;
8540;SDS011;4308;51.294;6.590;2023-10-08T05:26:46;10.57;;;5.20;;
8540;SDS011;4308;51.294;6.590;2023-10-08T05:29:14;11.90;;;5.30;;
8540;SDS011;4308;51.294;6.590;2023-10-08T05:31:41;7.90;;;4.80;;
8540;SDS011;4308;51.294;6.590;2023-10-08T05:34:09;9.70;;;5.10;;
8540;SDS011;4308;51.294;6.590;2023-10-08T05:36:36;10.03;;;4.60;;
8540;SDS011;4308;51.294;6.590;2023-10-08T05:39:04;11.37;;;5.73;;
8540;SDS011;4308;51.294;6.590;2023-10-08T05:41:31;9.67;;;5.70;;
8540;SDS011;4308;51.294;6.590;2023-10-08T05:43:59;9.17;;;5.40;;
8540;SDS011;4308;51.294;6.590;2023-10-08T05:46:26;8.67;;;5.33;;
8540;SDS011;4308;51.294;6.590;2023-10-08T05:48:55;12.57;;;5.07;;
8540;SDS011;4308;51.294;6.590;2023-10-08T05:51:23;7.60;;;4.60;;
8540;SDS011;4308;51.294;6.590;2023-10-08T05:53:50;10.87;;;4.57;;
8540;SDS011;4308;51.294;6.590;2023-10-08T05:56:18;13.00;;;4.53;;
8540;SDS011;4308;51.294;6.590;2023-10-08T05:58:46;11.33;;;4.93;;
8540;SDS011;4308;51.294;6.590;2023-10-08T06:01:13;8.80;;;4.70;;
8540;SDS011;4308;51.294;6.590;2023-10-08T06:03:41;5.33;;;3.93;;
8540;SDS011;4308;51.294;6.590;2023-10-08T06:06:09;10.97;;;4.90;;
8540;SDS011;4308;51.294;6.590;2023-10-08T06:08:39;10.30;;;4.60;;
8540;SDS011;4308;51.294;6.590;2023-10-08T06:11:07;9.20;;;5.00;;
8540;SDS011;4308;51.294;6.590;2023-10-08T06:13:35;9.10;;;4.73;;
8540;SDS011;4308;51.294;6.590;2023-10-08T06:16:02;6.90;;;4.70;;
8540;SDS011;4308;51.294;6.590;2023-10-08T06:18:30;10.90;;;5.03;;
8540;SDS011;4308;51.294;6.590;2023-10-08T06:21:00;9.43;;;5.33;;
8540;SDS011;4308;51.294;6.590;2023-10-08T06:23:28;8.37;;;4.50;;
8540;SDS011;4308;51.294;6.590;2023-10-08T06:25:56;8.90;;;4.77;;
8540;SDS011;4308;51.294;6.590;2023-10-08T06:28:26;9.67;;;5.57;;
8540;SDS011;4308;51.294;6.590;2023-10-08T06:30:54;9.43;;;5.00;;
8540;SDS011;4308;51.294;6.590;2023-10-08T06:33:23;8.33;;;4.87;;
8540;SDS011;4308;51.294;6.590;2023-10-08T06:35:51;12.30;;;5.03;;
8540;SDS011;4308;51.294;6.590;2023-10-08T06:38:18;11.50;;;5.50;;
8540;SDS011;4308;51.294;6.590;2023-10-08T06:40:46;8.03;;;4.90;;
8540;SDS011;4308;51.294;6.590;2023-10-08T06:43:14;8.73;;;4.40;;
8540;SDS011;4308;51.294;6.590;2023-10-08T06:45:43;9.77;;;5.27;;
8540;SDS011;4308;51.294;6.590;2023-10-08T06:48:10;9.23;;;5.10;;
8540;SDS011;4308;51.294;6.590;2023-10-08T06:50:38;12.80;;;4.90;;
8540;SDS011;4308;51.294;6.590;2023-10-08T06:53:06;9.60;;;4.87;;
8540;SDS011;4308;51.294;6.590;2023-10-08T06:55:34;9.57;;;5.47;;
8540;SDS011;4308;51.294;6.590;2023-10-08T06:58:02;9.33;;;4.93;;
8540;SDS011;4308;51.294;6.590;2023-10-08T07:00:30;9.87;;;5.20;;
8540;SDS011;4308;51.294;6.590;2023-10-08T07:02:57;9.10;;;5.10;;
8540;SDS011;4308;51.294;6.590;2023-10-08T07:05:25;10.93;;;4.70;;
8540;SDS011;4308;51.294;6.590;2023-10-08T07:07:53;13.83;;;5.93;;
8540;SDS011;4308;51.294;6.590;2023-10-08T07:10:21;10.97;;;5.77;;
8540;SDS011;4308;51.294;6.590;2023-10-08T07:12:48;9.27;;;5.23;;
8540;SDS011;4308;51.294;6.590;2023-10-08T07:15:16;10.50;;;5.03;;
8540;SDS011;4308;51.294;6.590;2023-10-08T07:17:43;7.53;;;4.40;;
8540;SDS011;4308;51.294;6.590;2023-10-08T07:20:11;10.87;;;5.43;;
8540;SDS011;4308;51.294;6.590;2023-10-08T07:22:39;10.53;;;5.50;;
8540;SDS011;4308;51.294;6.590;2023-10-08T07:25:07;9.20;;;5.30;;
8540;SDS011;4308;51.294;6.590;2023-10-08T07:27:34;10.97;;;5.57;;
8540;SDS011;4308;51.294;6.590;2023-10-08T07:30:02;12.77;;;5.57;;
8540;SDS011;4308;51.294;6.590;2023-10-08T07:32:30;13.00;;;6.20;;
8540;SDS011;4308;51.294;6.590;2023-10-08T07:34:58;10.07;;;5.90;;
8540;SDS011;4308;51.294;6.590;2023-10-08T07:37:26;18.33;;;4.63;;
8540;SDS011;4308;51.294;6.590;2023-10-08T07:39:53;11.43;;;4.90;;
8540;SDS011;4308;51.294;6.590;2023-10-08T07:42:21;11.00;;;5.53;;
8540;SDS011;4308;51.294;6.590;2023-10-08T07:44:48;12.77;;;5.67;;
8540;SDS011;4308;51.294;6.590;2023-10-08T07:47:16;11.13;;;5.80;;
8540;SDS011;4308;51.294;6.590;2023-10-08T07:49:44;10.80;;;5.73;;
8540;SDS011;4308;51.294;6.590;2023-10-08T07:52:12;13.60;;;5.97;;
8540;SDS011;4308;51.294;6.590;2023-10-08T07:54:39;10.10;;;5.50;;
8540;SDS011;4308;51.294;6.590;2023-10-08T07:57:07;8.77;;;5.10;;
8540;SDS011;4308;51.294;6.590;2023-10-08T07:59:35;12.87;;;5.40;;
8540;SDS011;4308;51.294;6.590;2023-10-08T08:02:03;11.07;;;5.90;;
8540;SDS011;4308;51.294;6.590;2023-10-08T08:04:30;18.00;;;6.27;;
8540;SDS011;4308;51.294;6.590;2023-10-08T08:06:58;13.87;;;6.73;;
8540;SDS011;4308;51.294;6.590;2023-10-08T08:09:26;12.80;;;6.23;;
8540;SDS011;4308;51.294;6.590;2023-10-08T08:11:53;11.17;;;6.27;;
8540;SDS011;4308;51.294;6.590;2023-10-08T08:14:21;14.90;;;6.73;;
8540;SDS011;4308;51.294;6.590;2023-10-08T08:16:48;13.93;;;6.03;;
8540;SDS011;4308;51.294;6.590;2023-10-08T08:19:16;13.67;;;6.03;;
8540;SDS011;4308;51.294;6.590;2023-10-08T08:21:44;11.63;;;6.40;;
8540;SDS011;4308;51.294;6.590;2023-10-08T08:24:13;10.47;;;5.60;;
8540;SDS011;4308;51.294;6.590;2023-10-08T08:26:40;14.03;;;6.70;;
8540;SDS011;4308;51.294;6.590;2023-10-08T08:29:08;10.97;;;6.70;;
8540;SDS011;4308;51.294;6.590;2023-10-08T08:31:36;14.50;;;6.77;;
8540;SDS011;4308;51.294;6.590;2023-10-08T08:34:03;16.03;;;6.57;;
8540;SDS011;4308;51.294;6.590;2023-10-08T08:36:31;19.67;;;6.43;;
8540;SDS011;4308;51.294;6.590;2023-10-08T08:38:58;15.37;;;7.60;;
8540;SDS011;4308;51.294;6.590;2023-10-08T08:41:26;20.07;;;8.30;;
8540;SDS011;4308;51.294;6.590;2023-10-08T08:43:54;22.87;;;9.70;;
8540;SDS011;4308;51.294;6.590;2023-10-08T08:46:25;22.53;;;8.60;;
8540;SDS011;4308;51.294;6.590;2023-10-08T08:48:53;18.73;;;9.13;;
8540;SDS011;4308;51.294;6.590;2023-10-08T08:51:23;27.53;;;10.60;;
8540;SDS011;4308;51.294;6.590;2023-10-08T08:53:50;25.33;;;10.20;;
8540;SDS011;4308;51.294;6.590;2023-10-08T08:56:18;20.57;;;9.50;;
8540;SDS011;4308;51.294;6.590;2023-10-08T08:58:46;33.47;;;11.70;;
8540;SDS011;4308;51.294;6.590;2023-10-08T09:01:13;23.37;;;9.60;;
8540;SDS011;4308;51.294;6.590;2023-10-08T09:03:41;24.40;;;10.47;;
8540;SDS011;4308;51.294;6.590;2023-10-08T09:06:09;27.60;;;11.80;;
8540;SDS011;4308;51.294;6.590;2023-10-08T09:08:37;29.30;;;11.73;;
8540;SDS011;4308;51.294;6.590;2023-10-08T09:11:05;24.33;;;12.57;;
8540;SDS011;4308;51.294;6.590;2023-10-08T09:13:33;28.30;;;12.03;;
8540;SDS011;4308;51.294;6.590;2023-10-08T09:16:13;27.73;;;13.10;;
8540;SDS011;4308;51.294;6.590;2023-10-08T09:18:44;32.30;;;12.50;;
8540;SDS011;4308;51.294;6.590;2023-10-08T09:21:16;23.13;;;11.07;;
8540;SDS011;4308;51.294;6.590;2023-10-08T09:23:44;21.70;;;13.17;;
8540;SDS011;4308;51.294;6.590;2023-10-08T09:26:12;30.37;;;12.83;;
8540;SDS011;4308;51.294;6.590;2023-10-08T09:28:40;27.00;;;12.83;;
8540;SDS011;4308;51.294;6.590;2023-10-08T09:31:12;23.40;;;11.73;;
8540;SDS011;4308;51.294;6.590;2023-10-08T09:33:40;27.70;;;13.03;;
8540;SDS011;4308;51.294;6.590;2023-10-08T09:36:09;29.13;;;12.90;;
8540;SDS011;4308;51.294;6.590;2023-10-08T09:38:37;24.40;;;11.83;;
8540;SDS011;4308;51.294;6.590;2023-10-08T09:41:05;27.33;;;13.00;;
8540;SDS011;4308;51.294;6.590;2023-10-08T09:43:33;25.43;;;13.13;;
8540;SDS011;4308;51.294;6.590;2023-10-08T09:46:08;30.10;;;13.70;;
8540;SDS011;4308;51.294;6.590;2023-10-08T09:48:37;25.50;;;12.67;;
8540;SDS011;4308;51.294;6.590;2023-10-08T09:51:05;33.57;;;13.13;;
8540;SDS011;4308;51.294;6.590;2023-10-08T09:53:38;25.30;;;12.80;;
8540;SDS011;4308;51.294;6.590;2023-10-08T09:56:12;29.67;;;13.67;;
8540;SDS011;4308;51.294;6.590;2023-10-08T09:58:40;26.63;;;13.77;;
8540;SDS011;4308;51.294;6.590;2023-10-08T10:01:08;30.63;;;14.83;;
8540;SDS011;4308;51.294;6.590;2023-10-08T10:03:37;20.87;;;12.70;;
8540;SDS011;4308;51.294;6.590;2023-10-08T10:06:11;14.63;;;8.27;;
8540;SDS011;4308;51.294;6.590;2023-10-08T10:08:38;26.53;;;12.77;;
8540;SDS011;4308;51.294;6.590;2023-10-08T10:11:06;24.23;;;13.30;;
8540;SDS011;4308;51.294;6.590;2023-10-08T10:13:34;32.17;;;15.73;;
8540;SDS011;4308;51.294;6.590;2023-10-08T10:16:09;27.60;;;14.13;;
8540;SDS011;4308;51.294;6.590;2023-10-08T10:18:37;28.47;;;14.63;;
8540;SDS011;4308;51.294;6.590;2023-10-08T10:23:36;27.00;;;14.90;;
8540;SDS011;4308;51.294;6.590;2023-10-08T10:26:04;20.23;;;12.63;;
8540;SDS011;4308;51.294;6.590;2023-10-08T10:28:31;31.93;;;13.57;;
8540;SDS011;4308;51.294;6.590;2023-10-08T10:30:59;31.90;;;15.23;;
8540;SDS011;4308;51.294;6.590;2023-10-08T10:33:30;27.27;;;14.73;;
8540;SDS011;4308;51.294;6.590;2023-10-08T10:36:00;39.37;;;21.93;;
8540;SDS011;4308;51.294;6.590;2023-10-08T10:38:29;37.37;;;18.77;;
8540;SDS011;4308;51.294;6.590;2023-10-08T10:40:57;42.83;;;23.23;;
8540;SDS011;4308;51.294;6.590;2023-10-08T10:43:25;41.87;;;21.83;;
8540;SDS011;4308;51.294;6.590;2023-10-08T10:45:53;40.80;;;22.40;;
8540;SDS011;4308;51.294;6.590;2023-10-08T10:48:20;23.60;;;12.43;;
8540;SDS011;4308;51.294;6.590;2023-10-08T10:50:51;36.53;;;20.70;;
8540;SDS011;4308;51.294;6.590;2023-10-08T10:53:18;36.17;;;19.63;;
8540;SDS011;4308;51.294;6.590;2023-10-08T10:55:46;29.67;;;16.60;;
8540;SDS011;4308;51.294;6.590;2023-10-08T10:58:14;35.93;;;17.90;;
8540;SDS011;4308;51.294;6.590;2023-10-08T11:00:42;36.43;;;20.83;;
8540;SDS011;4308;51.294;6.590;2023-10-08T11:03:10;35.67;;;20.83;;
8540;SDS011;4308;51.294;6.590;2023-10-08T11:05:38;37.90;;;21.13;;
8540;SDS011;4308;51.294;6.590;2023-10-08T11:08:06;38.03;;;22.07;;
8540;SDS011;4308;51.294;6.590;2023-10-08T11:10:38;39.13;;;20.83;;
8540;SDS011;4308;51.294;6.590;2023-10-08T11:13:06;40.50;;;24.03;;
8540;SDS011;4308;51.294;6.590;2023-10-08T11:15:33;30.17;;;19.57;;
8540;SDS011;4308;51.294;6.590;2023-10-08T11:18:01;42.67;;;21.63;;
8540;SDS011;4308;51.294;6.590;2023-10-08T11:20:29;39.63;;;21.27;;
8540;SDS011;4308;51.294;6.590;2023-10-08T11:22:56;36.70;;;19.77;;
8540;SDS011;4308;51.294;6.590;2023-10-08T11:25:24;33.07;;;18.57;;
8540;SDS011;4308;51.294;6.590;2023-10-08T11:27:52;31.93;;;20.00;;
8540;SDS011;4308;51.294;6.590;2023-10-08T11:30:19;35.73;;;19.33;;
8540;SDS011;4308;51.294;6.590;2023-10-08T11:32:47;37.07;;;19.10;;
8540;SDS011;4308;51.294;6.590;2023-10-08T11:35:15;39.57;;;21.17;;
8540;SDS011;4308;51.294;6.590;2023-10-08T11:37:46;41.43;;;21.93;;
8540;SDS011;4308;51.294;6.590;2023-10-08T11:40:23;36.43;;;18.70;;
8540;SDS011;4308;51.294;6.590;2023-10-08T11:42:51;33.40;;;19.57;;
8540;SDS011;4308;51.294;6.590;2023-10-08T11:45:18;36.57;;;20.57;;
8540;SDS011;4308;51.294;6.590;2023-10-08T11:47:55;37.13;;;19.20;;
8540;SDS011;4308;51.294;6.590;2023-10-08T11:50:23;35.50;;;19.30;;
8540;SDS011;4308;51.294;6.590;2023-10-08T11:52:51;31.40;;;18.23;;
8540;SDS011;4308;51.294;6.590;2023-10-08T11:55:19;32.93;;;18.87;;
8540;SDS011;4308;51.294;6.590;2023-10-08T11:57:47;33.33;;;19.37;;
8540;SDS011;4308;51.294;6.590;2023-10-08T12:00:15;34.07;;;19.73;;
8540;SDS011;4308;51.294;6.590;2023-10-08T12:02:58;34.23;;;19.67;;
8540;SDS011;4308;51.294;6.590;2023-10-08T12:05:26;30.57;;;20.90;;
8540;SDS011;4308;51.294;6.590;2023-10-08T12:07:54;32.77;;;20.63;;
8540;SDS011;4308;51.294;6.590;2023-10-08T12:10:22;35.50;;;22.17;;
8540;SDS011;4308;51.294;6.590;2023-10-08T12:12:50;33.23;;;20.47;;
8540;SDS011;4308;51.294;6.590;2023-10-08T12:15:18;37.03;;;21.53;;
8540;SDS011;4308;51.294;6.590;2023-10-08T12:17:47;33.17;;;20.33;;
8540;SDS011;4308;51.294;6.590;2023-10-08T12:20:15;33.13;;;19.70;;
8540;SDS011;4308;51.294;6.590;2023-10-08T12:22:42;35.70;;;20.97;;
8540;SDS011;4308;51.294;6.590;2023-10-08T12:25:10;34.53;;;19.90;;
8540;SDS011;4308;51.294;6.590;2023-10-08T12:27:38;37.37;;;19.67;;
8540;SDS011;4308;51.294;6.590;2023-10-08T12:30:06;33.57;;;19.33;;
8540;SDS011;4308;51.294;6.590;2023-10-08T12:32:33;30.27;;;17.90;;
8540;SDS011;4308;51.294;6.590;2023-10-08T12:35:01;34.93;;;16.97;;
8540;SDS011;4308;51.294;6.590;2023-10-08T12:37:29;25.03;;;16.10;;
8540;SDS011;4308;51.294;6.590;2023-10-08T12:39:57;28.30;;;16.23;;
8540;SDS011;4308;51.294;6.590;2023-10-08T12:42:24;27.67;;;15.67;;
8540;SDS011;4308;51.294;6.590;2023-10-08T12:44:52;36.33;;;16.40;;
8540;SDS011;4308;51.294;6.590;2023-10-08T12:47:20;28.40;;;15.27;;
8540;SDS011;4308;51.294;6.590;2023-10-08T12:49:47;26.77;;;13.70;;
8540;SDS011;4308;51.294;6.590;2023-10-08T12:52:15;23.30;;;14.23;;
8540;SDS011;4308;51.294;6.590;2023-10-08T12:54:42;23.60;;;13.30;;
8540;SDS011;4308;51.294;6.590;2023-10-08T12:57:10;25.37;;;13.37;;
8540;SDS011;4308;51.294;6.590;2023-10-08T12:59:38;24.53;;;13.53;;
8540;SDS011;4308;51.294;6.590;2023-10-08T13:02:06;21.50;;;12.93;;
8540;SDS011;4308;51.294;6.590;2023-10-08T13:04:33;24.50;;;13.20;;
8540;SDS011;4308;51.294;6.590;2023-10-08T13:07:01;28.13;;;12.73;;
8540;SDS011;4308;51.294;6.590;2023-10-08T13:09:29;24.27;;;12.47;;
8540;SDS011;4308;51.294;6.590;2023-10-08T13:11:58;21.40;;;12.47;;
8540;SDS011;4308;51.294;6.590;2023-10-08T13:14:25;19.23;;;10.83;;
8540;SDS011;4308;51.294;6.590;2023-10-08T13:16:53;18.90;;;10.27;;
8540;SDS011;4308;51.294;6.590;2023-10-08T13:19:21;21.77;;;11.67;;
8540;SDS011;4308;51.294;6.590;2023-10-08T13:21:49;16.97;;;11.23;;
8540;SDS011;4308;51.294;6.590;2023-10-08T13:24:16;18.00;;;11.83;;
8540;SDS011;4308;51.294;6.590;2023-10-08T13:26:46;22.53;;;11.83;;
8540;SDS011;4308;51.294;6.590;2023-10-08T13:29:14;20.87;;;12.23;;
8540;SDS011;4308;51.294;6.590;2023-10-08T13:31:42;20.07;;;11.93;;
8540;SDS011;4308;51.294;6.590;2023-10-08T13:34:10;21.67;;;11.90;;
8540;SDS011;4308;51.294;6.590;2023-10-08T13:36:38;22.57;;;11.77;;
8540;SDS011;4308;51.294;6.590;2023-10-08T13:39:06;25.80;;;12.10;;
8540;SDS011;4308;51.294;6.590;2023-10-08T13:41:35;20.30;;;12.13;;
8540;SDS011;4308;51.294;6.590;2023-10-08T13:44:02;19.73;;;11.80;;
8540;SDS011;4308;51.294;6.590;2023-10-08T13:46:30;19.50;;;12.43;;
8540;SDS011;4308;51.294;6.590;2023-10-08T13:48:58;27.13;;;12.70;;
8540;SDS011;4308;51.294;6.590;2023-10-08T13:51:26;19.50;;;11.43;;
8540;SDS011;4308;51.294;6.590;2023-10-08T13:53:54;22.73;;;11.90;;
8540;SDS011;4308;51.294;6.590;2023-10-08T13:56:22;19.87;;;11.33;;
8540;SDS011;4308;51.294;6.590;2023-10-08T13:58:50;19.57;;;11.20;;
8540;SDS011;4308;51.294;6.590;2023-10-08T14:01:18;23.73;;;12.60;;
8540;SDS011;4308;51.294;6.590;2023-10-08T14:03:48;17.07;;;9.93;;
8540;SDS011;4308;51.294;6.590;2023-10-08T14:06:16;20.87;;;11.00;;
8540;SDS011;4308;51.294;6.590;2023-10-08T14:08:44;14.57;;;10.13;;
8540;SDS011;4308;51.294;6.590;2023-10-08T14:11:12;17.70;;;11.90;;
8540;SDS011;4308;51.294;6.590;2023-10-08T14:13:39;21.07;;;10.97;;
8540;SDS011;4308;51.294;6.590;2023-10-08T14:16:08;18.70;;;11.07;;
8540;SDS011;4308;51.294;6.590;2023-10-08T14:18:36;17.63;;;10.37;;
8540;SDS011;4308;51.294;6.590;2023-10-08T14:21:04;17.30;;;10.13;;
8540;SDS011;4308;51.294;6.590;2023-10-08T14:23:31;18.40;;;10.70;;
8540;SDS011;4308;51.294;6.590;2023-10-08T14:25:59;15.10;;;9.50;;
8540;SDS011;4308;51.294;6.590;2023-10-08T14:28:26;17.00;;;10.27;;
8540;SDS011;4308;51.294;6.590;2023-10-08T14:30:54;20.43;;;10.40;;
8540;SDS011;4308;51.294;6.590;2023-10-08T14:33:22;18.83;;;10.33;;
8540;SDS011;4308;51.294;6.590;2023-10-08T14:35:50;19.23;;;11.73;;
8540;SDS011;4308;51.294;6.590;2023-10-08T14:38:18;18.70;;;11.03;;
8540;SDS011;4308;51.294;6.590;2023-10-08T14:40:46;23.50;;;11.70;;
8540;SDS011;4308;51.294;6.590;2023-10-08T14:43:14;17.10;;;9.80;;
8540;SDS011;4308;51.294;6.590;2023-10-08T14:45:41;19.07;;;10.07;;
8540;SDS011;4308;51.294;6.590;2023-10-08T14:48:09;15.40;;;10.27;;
8540;SDS011;4308;51.294;6.590;2023-10-08T14:50:37;20.27;;;10.60;;
8540;SDS011;4308;51.294;6.590;2023-10-08T14:53:05;26.73;;;10.83;;
8540;SDS011;4308;51.294;6.590;2023-10-08T14:55:33;18.67;;;10.77;;
8540;SDS011;4308;51.294;6.590;2023-10-08T14:58:04;17.37;;;9.77;;
8540;SDS011;4308;51.294;6.590;2023-10-08T15:00:31;14.90;;;9.40;;
8540;SDS011;4308;51.294;6.590;2023-10-08T15:02:59;16.77;;;9.27;;
8540;SDS011;4308;51.294;6.590;2023-10-08T15:05:27;17.73;;;10.20;;
8540;SDS011;4308;51.294;6.590;2023-10-08T15:07:54;18.83;;;10.50;;
8540;SDS011;4308;51.294;6.590;2023-10-08T15:10:22;20.93;;;10.40;;